sensor_id;sensor_type;location;lat;lon;timestamp;temperature;humidity
72440;DHT22;60446;50.752;4.352;2024-02-23T00:00:54;4.40;99.90
72440;DHT22;60446;50.752;4.352;2024-02-23T00:03:21;4.50;99.90
72440;DHT22;60446;50.752;4.352;2024-02-23T00:05:48;4.40;99.90
72440;DHT22;60446;50.752;4.352;2024-02-23T00:08:15;4.40;99.90
72440;DHT22;60446;50.752;4.352;2024-02-23T00:10:43;4.40;99.90
72440;DHT22;60446;50.752;4.352;2024-02-23T00:13:10;4.50;99.90
72440;DHT22;60446;50.752;4.352;2024-02-23T00:15:37;4.50;99.90
72440;DHT22;60446;50.752;4.352;2024-02-23T00:18:04;4.60;99.90
72440;DHT22;60446;50.752;4.352;2024-02-23T00:20:34;4.50;99.90
72440;DHT22;60446;50.752;4.352;2024-02-23T00:23:02;4.50;99.90
72440;DHT22;60446;50.752;4.352;2024-02-23T00:25:29;4.40;99.90
72440;DHT22;60446;50.752;4.352;2024-02-23T00:27:57;4.40;99.90
72440;DHT22;60446;50.752;4.352;2024-02-23T00:30:24;4.30;99.90
72440;DHT22;60446;50.752;4.352;2024-02-23T00:32:51;4.30;99.90
72440;DHT22;60446;50.752;4.352;2024-02-23T00:35:19;4.30;99.90
72440;DHT22;60446;50.752;4.352;2024-02-23T00:37:46;4.40;99.90
72440;DHT22;60446;50.752;4.352;2024-02-23T00:40:13;4.40;99.90
72440;DHT22;60446;50.752;4.352;2024-02-23T00:42:40;4.40;99.90
72440;DHT22;60446;50.752;4.352;2024-02-23T00:45:08;4.40;99.90
72440;DHT22;60446;50.752;4.352;2024-02-23T00:47:35;4.40;99.90
72440;DHT22;60446;50.752;4.352;2024-02-23T00:50:04;4.40;99.90
72440;DHT22;60446;50.752;4.352;2024-02-23T00:52:31;4.50;99.90
72440;DHT22;60446;50.752;4.352;2024-02-23T00:54:59;4.40;99.90
72440;DHT22;60446;50.752;4.352;2024-02-23T00:57:27;4.40;99.90
72440;DHT22;60446;50.752;4.352;2024-02-23T00:59:57;4.40;99.90
72440;DHT22;60446;50.752;4.352;2024-02-23T01:02:25;4.30;99.90
72440;DHT22;60446;50.752;4.352;2024-02-23T01:04:52;4.40;99.90
72440;DHT22;60446;50.752;4.352;2024-02-23T01:07:24;4.40;99.90
72440;DHT22;60446;50.752;4.352;2024-02-23T01:09:52;4.30;99.90
72440;DHT22;60446;50.752;4.352;2024-02-23T01:12:19;4.20;99.90
72440;DHT22;60446;50.752;4.352;2024-02-23T01:14:46;4.10;99.90
72440;DHT22;60446;50.752;4.352;2024-02-23T01:17:15;4.10;99.90
72440;DHT22;60446;50.752;4.352;2024-02-23T01:19:43;4.00;99.90
72440;DHT22;60446;50.752;4.352;2024-02-23T01:22:11;4.00;99.90
72440;DHT22;60446;50.752;4.352;2024-02-23T01:24:38;4.00;99.90
72440;DHT22;60446;50.752;4.352;2024-02-23T01:27:06;4.10;99.90
72440;DHT22;60446;50.752;4.352;2024-02-23T01:29:33;4.00;99.90
72440;DHT22;60446;50.752;4.352;2024-02-23T01:32:01;4.10;99.90
72440;DHT22;60446;50.752;4.352;2024-02-23T01:34:28;4.10;99.90
72440;DHT22;60446;50.752;4.352;2024-02-23T01:36:55;4.10;99.90
72440;DHT22;60446;50.752;4.352;2024-02-23T01:39:23;4.20;99.90
72440;DHT22;60446;50.752;4.352;2024-02-23T01:41:50;4.20;99.90
72440;DHT22;60446;50.752;4.352;2024-02-23T01:44:17;4.20;99.90
72440;DHT22;60446;50.752;4.352;2024-02-23T01:46:45;4.20;99.90
72440;DHT22;60446;50.752;4.352;2024-02-23T01:49:12;4.20;99.90
72440;DHT22;60446;50.752;4.352;2024-02-23T01:51:40;4.20;99.90
72440;DHT22;60446;50.752;4.352;2024-02-23T01:54:08;4.10;99.90
72440;DHT22;60446;50.752;4.352;2024-02-23T01:56:39;4.10;99.90
72440;DHT22;60446;50.752;4.352;2024-02-23T01:59:07;4.10;99.90
72440;DHT22;60446;50.752;4.352;2024-02-23T02:01:37;4.20;99.90
72440;DHT22;60446;50.752;4.352;2024-02-23T02:04:04;4.30;99.90
72440;DHT22;60446;50.752;4.352;2024-02-23T02:06:31;4.30;99.90
72440;DHT22;60446;50.752;4.352;2024-02-23T02:08:59;4.30;99.90
72440;DHT22;60446;50.752;4.352;2024-02-23T02:11:26;4.20;99.90
72440;DHT22;60446;50.752;4.352;2024-02-23T02:13:53;4.20;99.90
72440;DHT22;60446;50.752;4.352;2024-02-23T02:16:20;4.30;99.90
72440;DHT22;60446;50.752;4.352;2024-02-23T02:18:47;4.30;99.90
72440;DHT22;60446;50.752;4.352;2024-02-23T02:21:15;4.30;99.90
72440;DHT22;60446;50.752;4.352;2024-02-23T02:23:42;4.30;99.90
72440;DHT22;60446;50.752;4.352;2024-02-23T02:26:13;4.30;99.90
72440;DHT22;60446;50.752;4.352;2024-02-23T02:28:44;4.30;99.90
72440;DHT22;60446;50.752;4.352;2024-02-23T02:31:11;4.40;99.90
72440;DHT22;60446;50.752;4.352;2024-02-23T02:33:40;4.30;99.90
72440;DHT22;60446;50.752;4.352;2024-02-23T02:36:08;4.40;99.90
72440;DHT22;60446;50.752;4.352;2024-02-23T02:38:36;4.40;99.90
72440;DHT22;60446;50.752;4.352;2024-02-23T02:41:03;4.40;99.90
72440;DHT22;60446;50.752;4.352;2024-02-23T02:43:32;4.40;99.90
72440;DHT22;60446;50.752;4.352;2024-02-23T02:45:59;4.40;99.90
72440;DHT22;60446;50.752;4.352;2024-02-23T02:48:26;4.40;99.90
72440;DHT22;60446;50.752;4.352;2024-02-23T02:50:55;4.40;99.90
72440;DHT22;60446;50.752;4.352;2024-02-23T02:53:22;4.40;99.90
72440;DHT22;60446;50.752;4.352;2024-02-23T02:55:50;4.40;99.90
72440;DHT22;60446;50.752;4.352;2024-02-23T02:58:17;4.50;99.90
72440;DHT22;60446;50.752;4.352;2024-02-23T03:00:44;4.50;99.90
72440;DHT22;60446;50.752;4.352;2024-02-23T03:03:11;4.50;99.90
72440;DHT22;60446;50.752;4.352;2024-02-23T03:05:39;4.50;99.90
72440;DHT22;60446;50.752;4.352;2024-02-23T03:08:07;4.50;99.90
72440;DHT22;60446;50.752;4.352;2024-02-23T03:10:34;4.50;99.90
72440;DHT22;60446;50.752;4.352;2024-02-23T03:13:01;4.50;99.90
72440;DHT22;60446;50.752;4.352;2024-02-23T03:15:29;4.50;99.90
72440;DHT22;60446;50.752;4.352;2024-02-23T03:17:56;4.50;99.90
72440;DHT22;60446;50.752;4.352;2024-02-23T03:20:24;4.50;99.90
72440;DHT22;60446;50.752;4.352;2024-02-23T03:22:51;4.50;99.90
72440;DHT22;60446;50.752;4.352;2024-02-23T03:25:18;4.40;99.90
72440;DHT22;60446;50.752;4.352;2024-02-23T03:27:46;4.50;99.90
72440;DHT22;60446;50.752;4.352;2024-02-23T03:30:14;4.50;99.90
72440;DHT22;60446;50.752;4.352;2024-02-23T03:32:41;4.40;99.90
72440;DHT22;60446;50.752;4.352;2024-02-23T03:35:09;4.50;99.90
72440;DHT22;60446;50.752;4.352;2024-02-23T03:37:37;4.50;99.90
72440;DHT22;60446;50.752;4.352;2024-02-23T03:40:05;4.50;99.90
72440;DHT22;60446;50.752;4.352;2024-02-23T03:42:34;4.50;99.90
72440;DHT22;60446;50.752;4.352;2024-02-23T03:45:01;4.50;99.90
72440;DHT22;60446;50.752;4.352;2024-02-23T03:47:29;4.50;99.90
72440;DHT22;60446;50.752;4.352;2024-02-23T03:49:56;4.60;99.90
72440;DHT22;60446;50.752;4.352;2024-02-23T03:52:23;4.60;99.90
72440;DHT22;60446;50.752;4.352;2024-02-23T03:54:51;4.60;99.90
72440;DHT22;60446;50.752;4.352;2024-02-23T03:57:18;4.60;99.90
72440;DHT22;60446;50.752;4.352;2024-02-23T03:59:52;4.60;99.90
72440;DHT22;60446;50.752;4.352;2024-02-23T04:02:20;4.60;99.90
72440;DHT22;60446;50.752;4.352;2024-02-23T04:04:49;4.60;99.90
72440;DHT22;60446;50.752;4.352;2024-02-23T04:07:17;4.60;99.90
72440;DHT22;60446;50.752;4.352;2024-02-23T04:09:44;4.60;99.90
72440;DHT22;60446;50.752;4.352;2024-02-23T04:12:12;4.60;99.90
72440;DHT22;60446;50.752;4.352;2024-02-23T04:14:39;4.60;99.90
72440;DHT22;60446;50.752;4.352;2024-02-23T04:17:07;4.70;99.90
72440;DHT22;60446;50.752;4.352;2024-02-23T04:19:34;4.70;99.90
72440;DHT22;60446;50.752;4.352;2024-02-23T04:22:02;4.70;99.90
72440;DHT22;60446;50.752;4.352;2024-02-23T04:24:29;4.60;99.90
72440;DHT22;60446;50.752;4.352;2024-02-23T04:26:56;4.60;99.90
72440;DHT22;60446;50.752;4.352;2024-02-23T04:29:24;4.60;99.90
72440;DHT22;60446;50.752;4.352;2024-02-23T04:31:52;4.60;99.90
72440;DHT22;60446;50.752;4.352;2024-02-23T04:34:19;4.60;99.90
72440;DHT22;60446;50.752;4.352;2024-02-23T04:36:46;4.60;99.90
72440;DHT22;60446;50.752;4.352;2024-02-23T04:39:13;4.50;99.90
72440;DHT22;60446;50.752;4.352;2024-02-23T04:41:40;4.60;99.90
72440;DHT22;60446;50.752;4.352;2024-02-23T04:44:09;4.70;99.90
72440;DHT22;60446;50.752;4.352;2024-02-23T04:46:37;4.70;99.90
72440;DHT22;60446;50.752;4.352;2024-02-23T04:49:04;4.60;99.90
72440;DHT22;60446;50.752;4.352;2024-02-23T04:51:33;4.60;99.90
72440;DHT22;60446;50.752;4.352;2024-02-23T04:54:00;4.60;99.90
72440;DHT22;60446;50.752;4.352;2024-02-23T04:56:27;4.60;99.90
72440;DHT22;60446;50.752;4.352;2024-02-23T04:58:54;4.60;99.90
72440;DHT22;60446;50.752;4.352;2024-02-23T05:01:21;4.60;99.90
72440;DHT22;60446;50.752;4.352;2024-02-23T05:03:48;4.60;99.90
72440;DHT22;60446;50.752;4.352;2024-02-23T05:06:16;4.60;99.90
72440;DHT22;60446;50.752;4.352;2024-02-23T05:08:44;4.60;99.90
72440;DHT22;60446;50.752;4.352;2024-02-23T05:11:14;4.60;99.90
72440;DHT22;60446;50.752;4.352;2024-02-23T05:13:43;4.60;99.90
72440;DHT22;60446;50.752;4.352;2024-02-23T05:16:10;4.60;99.90
72440;DHT22;60446;50.752;4.352;2024-02-23T05:18:40;4.50;99.90
72440;DHT22;60446;50.752;4.352;2024-02-23T05:21:08;4.50;99.90
72440;DHT22;60446;50.752;4.352;2024-02-23T05:23:36;4.50;99.90
72440;DHT22;60446;50.752;4.352;2024-02-23T05:26:03;4.50;99.90
72440;DHT22;60446;50.752;4.352;2024-02-23T05:28:33;4.50;99.90
72440;DHT22;60446;50.752;4.352;2024-02-23T05:31:02;4.50;99.90
72440;DHT22;60446;50.752;4.352;2024-02-23T05:33:31;4.50;99.90
72440;DHT22;60446;50.752;4.352;2024-02-23T05:35:58;4.60;99.90
72440;DHT22;60446;50.752;4.352;2024-02-23T05:38:26;4.50;99.90
72440;DHT22;60446;50.752;4.352;2024-02-23T05:40:53;4.50;99.90
72440;DHT22;60446;50.752;4.352;2024-02-23T05:43:20;4.50;99.90
72440;DHT22;60446;50.752;4.352;2024-02-23T05:45:48;4.50;99.90
72440;DHT22;60446;50.752;4.352;2024-02-23T05:48:16;4.50;99.90
72440;DHT22;60446;50.752;4.352;2024-02-23T05:50:45;4.50;99.90
72440;DHT22;60446;50.752;4.352;2024-02-23T05:53:13;4.60;99.90
72440;DHT22;60446;50.752;4.352;2024-02-23T05:55:40;4.60;99.90
72440;DHT22;60446;50.752;4.352;2024-02-23T05:58:08;4.60;99.90
72440;DHT22;60446;50.752;4.352;2024-02-23T06:00:36;4.60;99.90
72440;DHT22;60446;50.752;4.352;2024-02-23T06:03:04;4.60;99.90
72440;DHT22;60446;50.752;4.352;2024-02-23T06:05:31;4.60;99.90
72440;DHT22;60446;50.752;4.352;2024-02-23T06:07:58;4.50;99.90
72440;DHT22;60446;50.752;4.352;2024-02-23T06:10:26;4.50;99.90
72440;DHT22;60446;50.752;4.352;2024-02-23T06:12:53;4.50;99.90
72440;DHT22;60446;50.752;4.352;2024-02-23T06:15:24;4.50;99.90
72440;DHT22;60446;50.752;4.352;2024-02-23T06:17:51;4.50;99.90
72440;DHT22;60446;50.752;4.352;2024-02-23T06:20:19;4.60;99.90
72440;DHT22;60446;50.752;4.352;2024-02-23T06:22:46;4.60;99.90
72440;DHT22;60446;50.752;4.352;2024-02-23T06:25:13;4.60;99.90
72440;DHT22;60446;50.752;4.352;2024-02-23T06:27:41;4.60;99.90
72440;DHT22;60446;50.752;4.352;2024-02-23T06:30:08;4.60;99.90
72440;DHT22;60446;50.752;4.352;2024-02-23T06:32:38;4.60;99.90
72440;DHT22;60446;50.752;4.352;2024-02-23T06:35:06;4.60;99.90
72440;DHT22;60446;50.752;4.352;2024-02-23T06:37:34;4.60;99.90
72440;DHT22;60446;50.752;4.352;2024-02-23T06:40:01;4.60;99.90
72440;DHT22;60446;50.752;4.352;2024-02-23T06:42:28;4.70;99.90
72440;DHT22;60446;50.752;4.352;2024-02-23T06:44:57;4.70;99.90
72440;DHT22;60446;50.752;4.352;2024-02-23T06:47:24;4.70;99.90
72440;DHT22;60446;50.752;4.352;2024-02-23T06:49:52;4.80;99.90
72440;DHT22;60446;50.752;4.352;2024-02-23T06:52:19;4.80;99.90
72440;DHT22;60446;50.752;4.352;2024-02-23T06:54:46;4.80;99.90
72440;DHT22;60446;50.752;4.352;2024-02-23T06:57:13;4.80;99.90
72440;DHT22;60446;50.752;4.352;2024-02-23T06:59:40;4.80;99.90
72440;DHT22;60446;50.752;4.352;2024-02-23T07:02:08;4.80;99.90
72440;DHT22;60446;50.752;4.352;2024-02-23T07:04:35;4.80;99.90
72440;DHT22;60446;50.752;4.352;2024-02-23T07:07:02;4.90;99.90
72440;DHT22;60446;50.752;4.352;2024-02-23T07:09:35;4.80;99.90
72440;DHT22;60446;50.752;4.352;2024-02-23T07:12:02;4.90;99.90
72440;DHT22;60446;50.752;4.352;2024-02-23T07:14:30;4.90;99.90
72440;DHT22;60446;50.752;4.352;2024-02-23T07:16:57;4.90;99.90
72440;DHT22;60446;50.752;4.352;2024-02-23T07:19:24;4.90;99.90
72440;DHT22;60446;50.752;4.352;2024-02-23T07:21:52;4.90;99.90
72440;DHT22;60446;50.752;4.352;2024-02-23T07:24:19;5.00;99.90
72440;DHT22;60446;50.752;4.352;2024-02-23T07:26:47;5.00;99.90
72440;DHT22;60446;50.752;4.352;2024-02-23T07:29:14;5.00;99.90
72440;DHT22;60446;50.752;4.352;2024-02-23T07:31:44;5.00;99.90
72440;DHT22;60446;50.752;4.352;2024-02-23T07:34:11;5.00;99.90
72440;DHT22;60446;50.752;4.352;2024-02-23T07:36:38;5.00;99.90
72440;DHT22;60446;50.752;4.352;2024-02-23T07:39:07;5.00;99.90
72440;DHT22;60446;50.752;4.352;2024-02-23T07:41:34;5.10;99.90
72440;DHT22;60446;50.752;4.352;2024-02-23T07:44:02;5.20;99.90
72440;DHT22;60446;50.752;4.352;2024-02-23T07:46:29;5.30;99.90
72440;DHT22;60446;50.752;4.352;2024-02-23T07:48:56;5.40;99.90
72440;DHT22;60446;50.752;4.352;2024-02-23T07:51:24;5.50;99.90
72440;DHT22;60446;50.752;4.352;2024-02-23T07:53:51;5.50;99.90
72440;DHT22;60446;50.752;4.352;2024-02-23T07:56:18;5.60;99.90
72440;DHT22;60446;50.752;4.352;2024-02-23T07:58:46;5.60;99.90
72440;DHT22;60446;50.752;4.352;2024-02-23T08:01:16;5.60;99.90
72440;DHT22;60446;50.752;4.352;2024-02-23T08:03:43;5.50;99.90
72440;DHT22;60446;50.752;4.352;2024-02-23T08:06:11;5.50;99.90
72440;DHT22;60446;50.752;4.352;2024-02-23T08:08:40;5.40;99.90
72440;DHT22;60446;50.752;4.352;2024-02-23T08:11:07;5.30;99.90
72440;DHT22;60446;50.752;4.352;2024-02-23T08:13:34;5.10;99.90
72440;DHT22;60446;50.752;4.352;2024-02-23T08:16:02;5.00;99.90
72440;DHT22;60446;50.752;4.352;2024-02-23T08:18:30;4.90;99.90
72440;DHT22;60446;50.752;4.352;2024-02-23T08:20:58;4.90;99.90
72440;DHT22;60446;50.752;4.352;2024-02-23T08:23:26;4.80;99.90
72440;DHT22;60446;50.752;4.352;2024-02-23T08:25:53;4.80;99.90
72440;DHT22;60446;50.752;4.352;2024-02-23T08:28:23;4.80;99.90
72440;DHT22;60446;50.752;4.352;2024-02-23T08:30:51;4.80;99.90
72440;DHT22;60446;50.752;4.352;2024-02-23T08:33:19;4.80;99.90
72440;DHT22;60446;50.752;4.352;2024-02-23T08:35:47;4.80;99.90
72440;DHT22;60446;50.752;4.352;2024-02-23T08:38:17;4.80;99.90
72440;DHT22;60446;50.752;4.352;2024-02-23T08:40:45;4.90;99.90
72440;DHT22;60446;50.752;4.352;2024-02-23T08:43:13;5.10;99.90
72440;DHT22;60446;50.752;4.352;2024-02-23T08:45:40;5.30;99.90
72440;DHT22;60446;50.752;4.352;2024-02-23T08:48:08;5.30;99.90
72440;DHT22;60446;50.752;4.352;2024-02-23T08:50:35;5.30;99.90
72440;DHT22;60446;50.752;4.352;2024-02-23T08:53:07;5.20;99.90
72440;DHT22;60446;50.752;4.352;2024-02-23T08:55:34;5.10;99.90
72440;DHT22;60446;50.752;4.352;2024-02-23T08:58:01;5.10;99.90
72440;DHT22;60446;50.752;4.352;2024-02-23T09:00:28;5.10;99.90
72440;DHT22;60446;50.752;4.352;2024-02-23T09:02:55;5.10;99.90
72440;DHT22;60446;50.752;4.352;2024-02-23T09:05:22;5.00;99.90
72440;DHT22;60446;50.752;4.352;2024-02-23T09:07:50;5.10;99.90
72440;DHT22;60446;50.752;4.352;2024-02-23T09:10:18;5.10;99.90
72440;DHT22;60446;50.752;4.352;2024-02-23T09:12:45;5.20;99.90
72440;DHT22;60446;50.752;4.352;2024-02-23T09:15:12;5.20;99.90
72440;DHT22;60446;50.752;4.352;2024-02-23T09:17:40;5.20;99.90
72440;DHT22;60446;50.752;4.352;2024-02-23T09:20:09;5.20;99.90
72440;DHT22;60446;50.752;4.352;2024-02-23T09:22:38;5.30;99.90
72440;DHT22;60446;50.752;4.352;2024-02-23T09:25:07;5.30;99.90
72440;DHT22;60446;50.752;4.352;2024-02-23T09:27:35;5.40;99.90
72440;DHT22;60446;50.752;4.352;2024-02-23T09:30:07;5.50;99.90
72440;DHT22;60446;50.752;4.352;2024-02-23T09:32:35;5.60;99.90
72440;DHT22;60446;50.752;4.352;2024-02-23T09:35:06;5.70;99.90
72440;DHT22;60446;50.752;4.352;2024-02-23T09:37:33;5.80;99.90
72440;DHT22;60446;50.752;4.352;2024-02-23T09:40:00;5.90;99.90
72440;DHT22;60446;50.752;4.352;2024-02-23T09:42:28;5.90;99.90
72440;DHT22;60446;50.752;4.352;2024-02-23T09:45:00;5.90;99.90
72440;DHT22;60446;50.752;4.352;2024-02-23T09:47:27;6.00;99.90
72440;DHT22;60446;50.752;4.352;2024-02-23T09:49:56;6.10;99.90
72440;DHT22;60446;50.752;4.352;2024-02-23T09:52:23;6.10;99.90
72440;DHT22;60446;50.752;4.352;2024-02-23T09:54:51;6.10;99.90
72440;DHT22;60446;50.752;4.352;2024-02-23T09:57:19;6.10;99.90
72440;DHT22;60446;50.752;4.352;2024-02-23T09:59:48;6.10;99.90
72440;DHT22;60446;50.752;4.352;2024-02-23T10:02:17;6.00;99.90
72440;DHT22;60446;50.752;4.352;2024-02-23T10:04:44;6.00;99.90
72440;DHT22;60446;50.752;4.352;2024-02-23T10:07:15;6.00;99.90
72440;DHT22;60446;50.752;4.352;2024-02-23T10:09:43;6.10;99.90
72440;DHT22;60446;50.752;4.352;2024-02-23T10:12:11;6.10;99.90
72440;DHT22;60446;50.752;4.352;2024-02-23T10:14:41;6.30;99.90
72440;DHT22;60446;50.752;4.352;2024-02-23T10:17:09;6.30;99.90
72440;DHT22;60446;50.752;4.352;2024-02-23T10:19:37;6.50;99.90
72440;DHT22;60446;50.752;4.352;2024-02-23T10:22:05;6.60;99.90
72440;DHT22;60446;50.752;4.352;2024-02-23T10:24:32;6.70;99.90
72440;DHT22;60446;50.752;4.352;2024-02-23T10:27:00;6.70;99.90
72440;DHT22;60446;50.752;4.352;2024-02-23T10:29:29;6.70;99.90
72440;DHT22;60446;50.752;4.352;2024-02-23T10:31:57;6.70;99.90
72440;DHT22;60446;50.752;4.352;2024-02-23T10:34:27;6.60;99.90
72440;DHT22;60446;50.752;4.352;2024-02-23T10:36:56;6.60;99.90
72440;DHT22;60446;50.752;4.352;2024-02-23T10:39:24;6.60;99.90
72440;DHT22;60446;50.752;4.352;2024-02-23T10:42:03;6.70;99.90
72440;DHT22;60446;50.752;4.352;2024-02-23T10:44:32;6.90;99.90
72440;DHT22;60446;50.752;4.352;2024-02-23T10:47:01;7.10;99.90
72440;DHT22;60446;50.752;4.352;2024-02-23T10:49:31;7.10;99.90
72440;DHT22;60446;50.752;4.352;2024-02-23T10:51:58;7.10;99.90
72440;DHT22;60446;50.752;4.352;2024-02-23T10:54:27;7.10;99.90
72440;DHT22;60446;50.752;4.352;2024-02-23T10:56:54;7.30;99.90
72440;DHT22;60446;50.752;4.352;2024-02-23T10:59:23;7.40;99.90
72440;DHT22;60446;50.752;4.352;2024-02-23T11:01:52;7.50;99.90
72440;DHT22;60446;50.752;4.352;2024-02-23T11:04:26;7.50;99.90
72440;DHT22;60446;50.752;4.352;2024-02-23T11:06:55;7.30;99.90
72440;DHT22;60446;50.752;4.352;2024-02-23T11:09:26;7.40;99.90
72440;DHT22;60446;50.752;4.352;2024-02-23T11:11:58;7.50;99.90
72440;DHT22;60446;50.752;4.352;2024-02-23T11:14:32;7.40;99.90
72440;DHT22;60446;50.752;4.352;2024-02-23T11:17:03;7.30;99.90
72440;DHT22;60446;50.752;4.352;2024-02-23T11:19:38;7.20;99.90
72440;DHT22;60446;50.752;4.352;2024-02-23T11:22:10;7.10;99.90
72440;DHT22;60446;50.752;4.352;2024-02-23T11:24:49;7.00;99.90
72440;DHT22;60446;50.752;4.352;2024-02-23T11:27:24;7.00;99.90
72440;DHT22;60446;50.752;4.352;2024-02-23T11:29:59;7.00;99.90
72440;DHT22;60446;50.752;4.352;2024-02-23T11:32:48;7.00;99.90
72440;DHT22;60446;50.752;4.352;2024-02-23T11:35:16;7.00;99.90
72440;DHT22;60446;50.752;4.352;2024-02-23T11:40:31;7.00;99.90
72440;DHT22;60446;50.752;4.352;2024-02-23T11:42:59;7.00;99.90
72440;DHT22;60446;50.752;4.352;2024-02-23T11:45:30;7.10;99.90
72440;DHT22;60446;50.752;4.352;2024-02-23T11:47:58;7.20;99.90
72440;DHT22;60446;50.752;4.352;2024-02-23T11:50:28;7.20;99.90
72440;DHT22;60446;50.752;4.352;2024-02-23T11:52:55;7.20;99.90
72440;DHT22;60446;50.752;4.352;2024-02-23T11:55:23;7.20;99.90
72440;DHT22;60446;50.752;4.352;2024-02-23T11:57:51;7.30;99.90
72440;DHT22;60446;50.752;4.352;2024-02-23T12:00:31;7.40;99.90
72440;DHT22;60446;50.752;4.352;2024-02-23T12:03:02;7.50;99.90
72440;DHT22;60446;50.752;4.352;2024-02-23T12:05:29;7.60;99.90
72440;DHT22;60446;50.752;4.352;2024-02-23T12:07:56;7.80;99.90
72440;DHT22;60446;50.752;4.352;2024-02-23T12:10:25;7.80;99.90
72440;DHT22;60446;50.752;4.352;2024-02-23T12:12:54;8.00;99.90
72440;DHT22;60446;50.752;4.352;2024-02-23T12:15:23;8.20;99.90
72440;DHT22;60446;50.752;4.352;2024-02-23T12:17:51;8.30;99.90
72440;DHT22;60446;50.752;4.352;2024-02-23T12:20:19;8.20;99.90
72440;DHT22;60446;50.752;4.352;2024-02-23T12:22:47;8.30;99.90
72440;DHT22;60446;50.752;4.352;2024-02-23T12:25:15;8.40;99.90
72440;DHT22;60446;50.752;4.352;2024-02-23T12:27:43;8.60;99.90
72440;DHT22;60446;50.752;4.352;2024-02-23T12:30:14;8.70;99.90
72440;DHT22;60446;50.752;4.352;2024-02-23T12:32:42;8.70;99.90
72440;DHT22;60446;50.752;4.352;2024-02-23T12:35:11;8.80;99.90
72440;DHT22;60446;50.752;4.352;2024-02-23T12:37:40;8.90;99.90
72440;DHT22;60446;50.752;4.352;2024-02-23T12:40:11;8.90;99.90
72440;DHT22;60446;50.752;4.352;2024-02-23T12:42:39;8.60;99.90
72440;DHT22;60446;50.752;4.352;2024-02-23T12:45:07;8.30;99.90
72440;DHT22;60446;50.752;4.352;2024-02-23T12:47:34;8.20;99.90
72440;DHT22;60446;50.752;4.352;2024-02-23T12:50:01;8.20;99.90
72440;DHT22;60446;50.752;4.352;2024-02-23T12:52:29;8.20;99.90
72440;DHT22;60446;50.752;4.352;2024-02-23T12:54:56;8.20;99.90
72440;DHT22;60446;50.752;4.352;2024-02-23T12:57:23;8.30;99.90
72440;DHT22;60446;50.752;4.352;2024-02-23T12:59:51;8.40;99.90
72440;DHT22;60446;50.752;4.352;2024-02-23T13:02:18;8.30;99.90
72440;DHT22;60446;50.752;4.352;2024-02-23T13:04:46;8.30;99.90
72440;DHT22;60446;50.752;4.352;2024-02-23T13:07:16;8.40;99.90
72440;DHT22;60446;50.752;4.352;2024-02-23T13:09:46;8.50;99.90
72440;DHT22;60446;50.752;4.352;2024-02-23T13:12:13;8.70;99.90
72440;DHT22;60446;50.752;4.352;2024-02-23T13:14:40;9.00;99.90
72440;DHT22;60446;50.752;4.352;2024-02-23T13:17:08;9.40;99.90
72440;DHT22;60446;50.752;4.352;2024-02-23T13:19:35;9.50;99.90
72440;DHT22;60446;50.752;4.352;2024-02-23T13:22:03;9.40;99.90
72440;DHT22;60446;50.752;4.352;2024-02-23T13:24:31;9.30;99.90
72440;DHT22;60446;50.752;4.352;2024-02-23T13:26:58;9.10;99.90
72440;DHT22;60446;50.752;4.352;2024-02-23T13:29:25;8.90;99.90
72440;DHT22;60446;50.752;4.352;2024-02-23T13:31:52;8.70;99.90
72440;DHT22;60446;50.752;4.352;2024-02-23T13:34:20;8.70;99.90
72440;DHT22;60446;50.752;4.352;2024-02-23T13:36:47;9.00;99.90
72440;DHT22;60446;50.752;4.352;2024-02-23T13:39:16;9.20;99.90
72440;DHT22;60446;50.752;4.352;2024-02-23T13:41:43;9.20;99.90
72440;DHT22;60446;50.752;4.352;2024-02-23T13:44:11;9.10;99.90
72440;DHT22;60446;50.752;4.352;2024-02-23T13:46:39;8.90;99.90
72440;DHT22;60446;50.752;4.352;2024-02-23T13:49:07;8.90;99.90
72440;DHT22;60446;50.752;4.352;2024-02-23T13:51:36;9.00;99.90
72440;DHT22;60446;50.752;4.352;2024-02-23T13:54:03;9.00;99.90
72440;DHT22;60446;50.752;4.352;2024-02-23T13:56:30;8.80;99.90
72440;DHT22;60446;50.752;4.352;2024-02-23T13:58:58;8.90;99.90
72440;DHT22;60446;50.752;4.352;2024-02-23T14:01:25;8.90;99.90
72440;DHT22;60446;50.752;4.352;2024-02-23T14:03:54;9.10;99.90
72440;DHT22;60446;50.752;4.352;2024-02-23T14:06:21;9.10;99.90
72440;DHT22;60446;50.752;4.352;2024-02-23T14:08:49;9.10;99.90
72440;DHT22;60446;50.752;4.352;2024-02-23T14:11:17;9.10;99.90
72440;DHT22;60446;50.752;4.352;2024-02-23T14:13:45;9.10;99.90
72440;DHT22;60446;50.752;4.352;2024-02-23T14:16:18;9.40;99.90
72440;DHT22;60446;50.752;4.352;2024-02-23T14:18:45;9.70;99.90
72440;DHT22;60446;50.752;4.352;2024-02-23T14:21:13;9.70;99.90
72440;DHT22;60446;50.752;4.352;2024-02-23T14:23:41;9.60;99.90
72440;DHT22;60446;50.752;4.352;2024-02-23T14:26:09;9.30;99.90
72440;DHT22;60446;50.752;4.352;2024-02-23T14:28:37;9.20;99.90
72440;DHT22;60446;50.752;4.352;2024-02-23T14:31:04;9.20;99.90
72440;DHT22;60446;50.752;4.352;2024-02-23T14:33:32;9.30;99.90
72440;DHT22;60446;50.752;4.352;2024-02-23T14:35:59;9.40;99.90
72440;DHT22;60446;50.752;4.352;2024-02-23T14:38:27;9.30;99.90
72440;DHT22;60446;50.752;4.352;2024-02-23T14:40:54;9.20;99.90
72440;DHT22;60446;50.752;4.352;2024-02-23T14:43:22;9.20;99.90
72440;DHT22;60446;50.752;4.352;2024-02-23T14:45:49;9.30;99.90
72440;DHT22;60446;50.752;4.352;2024-02-23T14:48:18;9.20;99.90
72440;DHT22;60446;50.752;4.352;2024-02-23T14:50:46;9.30;99.90
72440;DHT22;60446;50.752;4.352;2024-02-23T14:53:15;9.40;99.90
72440;DHT22;60446;50.752;4.352;2024-02-23T14:55:42;9.40;99.90
72440;DHT22;60446;50.752;4.352;2024-02-23T14:58:10;9.50;99.90
72440;DHT22;60446;50.752;4.352;2024-02-23T15:00:37;9.50;99.90
72440;DHT22;60446;50.752;4.352;2024-02-23T15:03:05;9.30;99.90
72440;DHT22;60446;50.752;4.352;2024-02-23T15:05:32;9.20;99.90
72440;DHT22;60446;50.752;4.352;2024-02-23T15:08:00;9.10;99.90
72440;DHT22;60446;50.752;4.352;2024-02-23T15:10:27;9.00;99.90
72440;DHT22;60446;50.752;4.352;2024-02-23T15:12:55;8.90;99.90
72440;DHT22;60446;50.752;4.352;2024-02-23T15:15:22;8.80;99.90
72440;DHT22;60446;50.752;4.352;2024-02-23T15:17:50;8.70;99.90
72440;DHT22;60446;50.752;4.352;2024-02-23T15:20:17;8.60;99.90
72440;DHT22;60446;50.752;4.352;2024-02-23T15:22:45;8.60;99.90
72440;DHT22;60446;50.752;4.352;2024-02-23T15:25:17;8.70;99.90
72440;DHT22;60446;50.752;4.352;2024-02-23T15:27:44;8.70;99.90
72440;DHT22;60446;50.752;4.352;2024-02-23T15:30:11;8.70;99.90
72440;DHT22;60446;50.752;4.352;2024-02-23T15:32:39;8.60;99.90
72440;DHT22;60446;50.752;4.352;2024-02-23T15:35:07;8.50;99.90
72440;DHT22;60446;50.752;4.352;2024-02-23T15:37:36;8.50;99.90
72440;DHT22;60446;50.752;4.352;2024-02-23T15:40:04;8.50;99.90
72440;DHT22;60446;50.752;4.352;2024-02-23T15:42:31;8.50;99.90
72440;DHT22;60446;50.752;4.352;2024-02-23T15:45:04;8.50;99.90
72440;DHT22;60446;50.752;4.352;2024-02-23T15:47:32;8.50;99.90
72440;DHT22;60446;50.752;4.352;2024-02-23T15:50:00;8.60;99.90
72440;DHT22;60446;50.752;4.352;2024-02-23T15:52:47;8.60;99.90